Time;durP1;ratioP1;P1;durP2;ratioP2;P2;SDS_P1;SDS_P2;PMS_P1;PMS_P2;Temp;Humidity;BMP_temperature;BMP_pressure;BME280_temperature;BME280_humidity;BME280_pressure;Samples;Min_cycle;Max_cycle;Signal;HPM_P1;HPM_P2
2023/10/11 00:00:40;;;;;;;;;11.33;11.00;;;;;;;;5058220;28;45346;-77
2023/10/11 00:05:50;;;;;;;;;8.00;6.67;;;;;;;;5059494;28;45491;-78
2023/10/11 00:08:16;;;;;;;;;13.00;12.67;;;;;;;;5061632;28;45362;-79
2023/10/11 00:10:53;;;;;;;;;16.67;14.33;;;;;;;;5063151;28;45308;-78
2023/10/11 00:13:19;;;;;;;;;10.67;10.33;;;;;;;;5063159;28;45336;-77
2023/10/11 00:15:49;;;;;;;;;9.00;7.00;;;;;;;;5062347;28;45448;-78
2023/10/11 00:18:16;;;;;;;;;11.67;11.67;;;;;;;;5062105;28;45508;-77
2023/10/11 00:23:07;;;;;;;;;9.00;7.67;;;;;;;;5062292;28;45284;-78
2023/10/11 00:25:32;;;;;;;;;11.33;9.33;;;;;;;;5062798;28;46452;-78
2023/10/11 00:27:58;;;;;;;;;11.00;10.00;;;;;;;;5061054;28;45275;-77
2023/10/11 00:30:24;;;;;;;;;11.33;11.33;;;;;;;;5080197;28;45361;-77
2023/10/11 00:32:49;;;;;;;;;12.00;10.00;;;;;;;;5057222;28;45647;-78
2023/10/11 00:35:24;;;;;;;;;11.00;11.00;;;;;;;;5042362;28;46128;-77
2023/10/11 00:37:51;;;;;;;;;10.00;8.33;;;;;;;;5041930;28;45302;-77
2023/10/11 00:40:25;;;;;;;;;11.67;11.00;;;;;;;;5041495;28;45437;-77
2023/10/11 00:42:50;;;;;;;;;15.67;12.00;;;;;;;;5042097;28;46037;-77
2023/10/11 00:45:16;;;;;;;;;13.67;13.67;;;;;;;;5042926;28;46131;-77
2023/10/11 00:47:45;;;;;;;;;14.67;14.67;;;;;;;;5062394;28;45208;-77
2023/10/11 00:50:14;;;;;;;;;10.67;10.67;;;;;;;;5062442;28;45528;-78
2023/10/11 00:52:40;;;;;;;;;13.67;10.33;;;;;;;;5077726;28;46876;-77
2023/10/11 00:55:09;;;;;;;;;12.67;10.67;;;;;;;;5062278;28;45225;-78
2023/10/11 00:57:36;;;;;;;;;13.33;12.00;;;;;;;;5062125;28;45165;-78
2023/10/11 01:00:02;;;;;;;;;10.33;10.33;;;;;;;;5077805;28;45285;-77
2023/10/11 01:02:31;;;;;;;;;12.00;11.33;;;;;;;;5077592;28;45367;-77
2023/10/11 01:04:57;;;;;;;;;12.00;12.00;;;;;;;;5061961;28;45186;-77
2023/10/11 01:07:23;;;;;;;;;16.00;11.00;;;;;;;;5061979;28;45217;-77
2023/10/11 01:09:48;;;;;;;;;11.00;10.00;;;;;;;;5062187;28;45938;-77
2023/10/11 01:12:13;;;;;;;;;13.67;12.67;;;;;;;;5062085;28;45250;-77
2023/10/11 01:14:56;;;;;;;;;11.33;9.33;;;;;;;;5077428;28;47568;-78
2023/10/11 01:17:22;;;;;;;;;12.00;11.00;;;;;;;;5061825;28;45331;-78
2023/10/11 01:19:51;;;;;;;;;8.67;8.67;;;;;;;;5061418;28;45181;-77
2023/10/11 01:22:16;;;;;;;;;13.33;12.00;;;;;;;;5061724;28;45312;-77
2023/10/11 01:24:41;;;;;;;;;13.00;11.33;;;;;;;;5043388;28;46895;-78
2023/10/11 01:27:07;;;;;;;;;12.67;11.67;;;;;;;;5061757;28;45356;-77
2023/10/11 01:29:32;;;;;;;;;12.67;11.00;;;;;;;;5082979;27;45415;-77
2023/10/11 01:31:57;;;;;;;;;15.33;11.00;;;;;;;;5102455;27;45434;-78
2023/10/11 01:34:27;;;;;;;;;13.00;11.33;;;;;;;;5102201;27;45294;-77
2023/10/11 01:36:52;;;;;;;;;13.67;12.00;;;;;;;;5102154;27;45200;-77
2023/10/11 01:39:21;;;;;;;;;13.00;11.00;;;;;;;;5102406;27;45199;-78
2023/10/11 01:41:46;;;;;;;;;12.00;10.67;;;;;;;;5102136;27;45316;-77
2023/10/11 01:44:11;;;;;;;;;11.00;11.00;;;;;;;;5083770;27;47991;-77
2023/10/11 01:46:39;;;;;;;;;11.00;10.00;;;;;;;;5083640;27;45372;-77
2023/10/11 01:49:05;;;;;;;;;11.67;11.00;;;;;;;;5102288;27;45295;-77
2023/10/11 01:51:30;;;;;;;;;10.33;10.00;;;;;;;;5083505;27;46574;-77
2023/10/11 01:53:57;;;;;;;;;13.00;12.67;;;;;;;;5101817;27;45283;-77
2023/10/11 01:56:25;;;;;;;;;12.00;10.33;;;;;;;;5102031;27;45206;-78
2023/10/11 01:58:51;;;;;;;;;12.00;12.00;;;;;;;;5083848;27;45393;-77
2023/10/11 02:01:21;;;;;;;;;8.67;8.67;;;;;;;;5102039;27;45325;-77
2023/10/11 02:03:46;;;;;;;;;15.67;13.00;;;;;;;;5101239;27;45424;-78
2023/10/11 02:06:13;;;;;;;;;11.33;10.33;;;;;;;;5101765;27;45217;-77
2023/10/11 02:08:38;;;;;;;;;10.00;8.00;;;;;;;;5083631;27;45295;-77
2023/10/11 02:11:05;;;;;;;;;11.67;11.33;;;;;;;;5082107;27;45495;-77
2023/10/11 02:13:30;;;;;;;;;10.00;9.67;;;;;;;;5081138;28;45583;-77
2023/10/11 02:15:59;;;;;;;;;9.67;9.67;;;;;;;;5061689;28;45345;-77
2023/10/11 02:18:25;;;;;;;;;12.00;11.33;;;;;;;;5062630;28;45343;-77
2023/10/11 02:20:52;;;;;;;;;13.67;11.33;;;;;;;;5081062;28;45218;-77
2023/10/11 02:23:20;;;;;;;;;11.67;11.33;;;;;;;;5081195;28;46160;-77
2023/10/11 02:25:46;;;;;;;;;10.00;10.00;;;;;;;;5062935;28;45362;-77
2023/10/11 02:28:14;;;;;;;;;15.33;13.67;;;;;;;;5081268;28;45404;-77
2023/10/11 02:30:41;;;;;;;;;10.33;9.33;;;;;;;;5100050;27;45302;-76
2023/10/11 02:33:11;;;;;;;;;15.00;14.33;;;;;;;;5101241;27;45272;-77
2023/10/11 02:35:51;;;;;;;;;15.33;13.00;;;;;;;;5101296;27;45274;-77
2023/10/11 02:38:23;;;;;;;;;15.00;14.00;;;;;;;;5101408;27;45430;-78
2023/10/11 02:40:55;;;;;;;;;14.67;13.00;;;;;;;;5101280;27;45331;-77
2023/10/11 02:43:25;;;;;;;;;14.00;13.00;;;;;;;;5101233;27;45825;-77
2023/10/11 02:45:50;;;;;;;;;8.33;8.33;;;;;;;;5101078;27;45277;-77
2023/10/11 02:48:19;;;;;;;;;11.00;11.00;;;;;;;;5101224;27;45279;-78
2023/10/11 02:50:46;;;;;;;;;13.67;12.67;;;;;;;;5082610;27;46964;-78
2023/10/11 02:53:23;;;;;;;;;11.00;10.67;;;;;;;;5101084;27;45371;-77
2023/10/11 02:55:58;;;;;;;;;10.67;9.67;;;;;;;;5082474;27;45349;-77
2023/10/11 02:58:24;;;;;;;;;12.00;12.00;;;;;;;;5101164;27;45248;-77
2023/10/11 03:00:56;;;;;;;;;10.33;10.33;;;;;;;;5101081;27;45272;-77
2023/10/11 03:03:21;;;;;;;;;8.67;8.67;;;;;;;;5082099;27;46933;-77
2023/10/11 03:05:46;;;;;;;;;12.00;11.00;;;;;;;;5100847;27;45446;-77
2023/10/11 03:08:16;;;;;;;;;15.00;11.67;;;;;;;;5082782;27;45387;-78
2023/10/11 03:10:43;;;;;;;;;11.00;9.33;;;;;;;;5101000;27;45220;-77
2023/10/11 03:13:09;;;;;;;;;12.00;11.33;;;;;;;;5100612;27;45955;-78
2023/10/11 03:15:38;;;;;;;;;13.33;11.33;;;;;;;;5100820;27;45255;-79
2023/10/11 03:18:06;;;;;;;;;14.00;11.33;;;;;;;;5100692;27;45394;-77
2023/10/11 03:20:36;;;;;;;;;13.00;13.00;;;;;;;;5082274;27;46137;-77
2023/10/11 03:23:04;;;;;;;;;9.33;9.33;;;;;;;;5100562;27;45342;-77
2023/10/11 03:25:30;;;;;;;;;11.33;11.33;;;;;;;;5082308;27;45413;-77
2023/10/11 03:27:56;;;;;;;;;13.33;11.67;;;;;;;;5100824;27;45232;-77
2023/10/11 03:30:24;;;;;;;;;11.67;11.00;;;;;;;;5064666;28;45879;-78
2023/10/11 03:32:50;;;;;;;;;16.67;14.67;;;;;;;;5079939;28;45331;-77
2023/10/11 03:35:18;;;;;;;;;16.00;14.00;;;;;;;;5061921;28;45832;-77
2023/10/11 03:38:17;;;;;;;;;13.67;12.33;;;;;;;;5080239;28;45298;-77
2023/10/11 03:40:38;;;;;;;;;16.67;12.67;;;;;;;;5077033;28;45314;-78
2023/10/11 03:43:16;;;;;;;;;12.67;11.67;;;;;;;;5061167;28;47296;-77
2023/10/11 03:45:49;;;;;;;;;10.00;10.00;;;;;;;;5079761;28;45192;-77
2023/10/11 03:48:15;;;;;;;;;10.67;10.67;;;;;;;;5079786;28;45309;-77
2023/10/11 03:50:47;;;;;;;;;13.67;12.67;;;;;;;;5079765;28;45480;-77
2023/10/11 03:53:13;;;;;;;;;11.33;10.33;;;;;;;;5061455;28;47668;-77
2023/10/11 03:55:45;;;;;;;;;12.00;12.00;;;;;;;;5061405;28;45248;-77
2023/10/11 03:58:11;;;;;;;;;14.67;14.67;;;;;;;;5061334;28;45402;-77
2023/10/11 04:00:46;;;;;;;;;12.33;12.33;;;;;;;;5079214;28;45446;-77
2023/10/11 04:03:14;;;;;;;;;20.00;16.33;;;;;;;;5078543;28;45376;-77
2023/10/11 04:05:40;;;;;;;;;18.00;16.00;;;;;;;;5060210;28;45291;-77
2023/10/11 04:08:07;;;;;;;;;15.00;12.67;;;;;;;;5079810;28;45334;-77
2023/10/11 04:10:39;;;;;;;;;19.33;17.33;;;;;;;;5079544;28;45524;-77
2023/10/11 04:13:09;;;;;;;;;14.33;13.67;;;;;;;;5079566;28;45946;-77
2023/10/11 04:15:40;;;;;;;;;18.33;15.00;;;;;;;;5079467;28;45295;-78
2023/10/11 04:18:15;;;;;;;;;16.67;16.00;;;;;;;;5060679;28;45252;-78
2023/10/11 04:20:50;;;;;;;;;11.67;11.67;;;;;;;;5079079;28;45389;-77
2023/10/11 04:23:15;;;;;;;;;17.00;14.33;;;;;;;;5079424;28;45235;-77
2023/10/11 04:25:43;;;;;;;;;13.00;12.33;;;;;;;;5079297;28;45110;-77
2023/10/11 04:28:12;;;;;;;;;14.33;13.67;;;;;;;;5079713;28;45226;-77
2023/10/11 04:30:44;;;;;;;;;16.33;13.67;;;;;;;;5080520;27;45338;-77
2023/10/11 04:33:17;;;;;;;;;15.33;14.00;;;;;;;;5067819;28;47455;-77
2023/10/11 04:35:42;;;;;;;;;15.67;13.67;;;;;;;;5065941;27;45446;-77
2023/10/11 04:38:10;;;;;;;;;17.00;11.33;;;;;;;;5060612;28;45330;-77
2023/10/11 04:40:47;;;;;;;;;12.67;12.67;;;;;;;;5079001;28;45342;-77
2023/10/11 04:45:44;;;;;;;;;16.00;12.67;;;;;;;;5078812;28;45374;-79
2023/10/11 04:48:18;;;;;;;;;15.00;15.00;;;;;;;;5078996;28;45196;-77
2023/10/11 04:50:45;;;;;;;;;18.33;16.00;;;;;;;;5060739;28;46055;-77
2023/10/11 04:53:17;;;;;;;;;17.67;14.67;;;;;;;;5060898;28;48063;-77
2023/10/11 04:55:46;;;;;;;;;16.00;14.00;;;;;;;;5064165;28;45737;-77
2023/10/11 04:58:21;;;;;;;;;13.00;12.00;;;;;;;;5064289;28;45457;-78
2023/10/11 05:00:47;;;;;;;;;16.33;14.33;;;;;;;;5082554;28;45366;-78
2023/10/11 05:03:12;;;;;;;;;15.33;12.00;;;;;;;;5081542;28;45936;-77
2023/10/11 05:05:41;;;;;;;;;15.67;15.67;;;;;;;;5082259;28;45288;-77
2023/10/11 05:08:20;;;;;;;;;17.67;14.67;;;;;;;;5081977;28;45318;-76
2023/10/11 05:10:46;;;;;;;;;14.00;14.00;;;;;;;;5082364;28;45383;-76
2023/10/11 05:13:13;;;;;;;;;13.00;12.33;;;;;;;;5063912;28;48173;-76
2023/10/11 05:15:47;;;;;;;;;13.33;12.33;;;;;;;;5063836;28;45337;-76
2023/10/11 05:18:18;;;;;;;;;17.67;16.33;;;;;;;;5063631;28;45338;-76
2023/10/11 05:23:13;;;;;;;;;18.00;17.33;;;;;;;;5081973;28;45307;-76
2023/10/11 05:26:36;;;;;;;;;14.33;14.00;;;;;;;;5082093;28;45307;-76
2023/10/11 05:28:44;;;;;;;;;17.33;16.00;;;;;;;;5080524;27;45555;-76
2023/10/11 05:52:58;;;;;;;;;11.67;11.00;;;;;;;;5110979;27;45292;-77
2023/10/11 05:55:23;;;;;;;;;17.67;16.33;;;;;;;;5091316;27;46126;-76
2023/10/11 05:57:52;;;;;;;;;15.00;14.33;;;;;;;;5087871;28;45432;-81
2023/10/11 06:00:23;;;;;;;;;16.33;14.33;;;;;;;;5075746;28;45245;-79
2023/10/11 06:02:50;;;;;;;;;16.33;14.67;;;;;;;;5078359;28;46294;-79
2023/10/11 06:05:15;;;;;;;;;15.33;14.33;;;;;;;;5099454;28;46206;-78
2023/10/11 06:07:42;;;;;;;;;17.33;15.00;;;;;;;;5099156;28;45276;-80
2023/10/11 06:10:08;;;;;;;;;22.67;18.00;;;;;;;;5081209;28;45513;-81
2023/10/11 06:12:33;;;;;;;;;19.33;17.00;;;;;;;;5074675;28;45280;-79
2023/10/11 06:15:03;;;;;;;;;17.67;16.67;;;;;;;;5057551;28;47092;-79
2023/10/11 06:17:48;;;;;;;;;14.33;13.67;;;;;;;;5053769;28;45591;-79
2023/10/11 06:20:23;;;;;;;;;18.00;16.33;;;;;;;;5077877;28;45355;-79
2023/10/11 06:22:49;;;;;;;;;16.33;15.33;;;;;;;;5076032;28;45299;-78
2023/10/11 06:25:22;;;;;;;;;18.00;14.00;;;;;;;;5086496;28;45311;-79
2023/10/11 06:30:22;;;;;;;;;17.67;17.00;;;;;;;;5113378;27;45303;-79
2023/10/11 06:32:49;;;;;;;;;17.33;14.00;;;;;;;;5096349;27;46063;-78
2023/10/11 06:35:23;;;;;;;;;16.33;15.00;;;;;;;;5096735;27;48158;-78
2023/10/11 06:37:52;;;;;;;;;14.67;13.33;;;;;;;;5099596;27;45238;-78
2023/10/11 06:40:18;;;;;;;;;13.67;13.33;;;;;;;;5093133;28;45379;-79
2023/10/11 06:42:43;;;;;;;;;20.00;17.33;;;;;;;;5093193;28;45434;-79
2023/10/11 06:45:16;;;;;;;;;20.67;18.33;;;;;;;;5075008;28;46787;-78
2023/10/11 06:47:42;;;;;;;;;20.00;17.67;;;;;;;;5093866;28;45345;-79
2023/10/11 06:50:10;;;;;;;;;20.00;18.67;;;;;;;;5067147;28;45792;-77
2023/10/11 06:52:36;;;;;;;;;15.33;12.33;;;;;;;;5073367;28;46453;-79
2023/10/11 06:57:39;;;;;;;;;11.00;10.00;;;;;;;;5083151;28;45346;-78
2023/10/11 07:00:20;;;;;;;;;16.33;14.33;;;;;;;;5093273;28;45413;-77
2023/10/11 07:02:47;;;;;;;;;15.00;14.33;;;;;;;;5093347;28;45330;-78
2023/10/11 07:05:17;;;;;;;;;17.67;17.00;;;;;;;;5091964;27;45991;-78
2023/10/11 07:07:47;;;;;;;;;12.33;12.33;;;;;;;;5072617;28;45407;-77
2023/10/11 07:11:01;;;;;;;;;21.67;16.33;;;;;;;;5088005;28;45507;-77
2023/10/11 07:13:05;;;;;;;;;14.67;13.00;;;;;;;;5075497;27;46925;-78
2023/10/11 07:15:37;;;;;;;;;20.67;18.67;;;;;;;;5093604;27;47274;-78
2023/10/11 07:18:04;;;;;;;;;19.33;17.33;;;;;;;;5093788;27;45236;-77
2023/10/11 07:23:18;;;;;;;;;17.33;15.67;;;;;;;;5110796;27;45337;-75
2023/10/11 07:25:45;;;;;;;;;14.00;13.33;;;;;;;;5093433;27;48113;-78
2023/10/11 07:28:13;;;;;;;;;15.33;15.33;;;;;;;;5114171;27;45377;-77
2023/10/11 07:30:38;;;;;;;;;13.00;13.00;;;;;;;;5096777;27;45404;-77
2023/10/11 07:33:04;;;;;;;;;16.33;15.67;;;;;;;;5092792;28;45315;-78
2023/10/11 07:35:29;;;;;;;;;17.33;16.67;;;;;;;;5075880;28;45324;-77
2023/10/11 07:37:56;;;;;;;;;17.67;17.67;;;;;;;;5075607;28;46153;-77
2023/10/11 07:40:31;;;;;;;;;14.33;13.00;;;;;;;;5093400;28;45361;-78
2023/10/11 07:42:57;;;;;;;;;18.00;16.00;;;;;;;;5095346;28;45275;-78
2023/10/11 07:45:26;;;;;;;;;16.67;16.33;;;;;;;;5094080;28;45405;-78
2023/10/11 07:47:52;;;;;;;;;12.67;12.67;;;;;;;;5093617;28;45329;-77
2023/10/11 07:50:22;;;;;;;;;14.67;13.00;;;;;;;;5092899;28;45397;-77
2023/10/11 07:52:47;;;;;;;;;11.33;11.00;;;;;;;;5094833;28;45354;-78
2023/10/11 07:55:12;;;;;;;;;17.00;14.33;;;;;;;;5075646;28;47236;-78
2023/10/11 07:57:44;;;;;;;;;14.33;13.67;;;;;;;;5093766;28;45346;-78
2023/10/11 08:00:16;;;;;;;;;13.00;13.00;;;;;;;;5092463;28;45288;-78
2023/10/11 08:02:42;;;;;;;;;14.00;12.00;;;;;;;;5088850;28;45426;-77
2023/10/11 08:05:12;;;;;;;;;13.00;13.00;;;;;;;;5069669;28;47016;-77
2023/10/11 08:07:37;;;;;;;;;20.00;16.67;;;;;;;;5090613;28;45386;-77
2023/10/11 08:10:29;;;;;;;;;12.67;11.33;;;;;;;;5090255;28;45462;-77
2023/10/11 08:12:48;;;;;;;;;12.00;11.00;;;;;;;;5088871;28;45387;-76
2023/10/11 08:15:15;;;;;;;;;13.33;13.33;;;;;;;;5089520;28;45826;-78
2023/10/11 08:17:40;;;;;;;;;13.67;13.67;;;;;;;;5091658;28;45272;-78
2023/10/11 08:20:09;;;;;;;;;15.00;13.33;;;;;;;;5089952;28;45392;-77
2023/10/11 08:22:37;;;;;;;;;11.00;11.00;;;;;;;;5091486;28;45338;-81
2023/10/11 08:25:02;;;;;;;;;12.00;12.00;;;;;;;;5083618;28;46288;-78
2023/10/11 08:27:28;;;;;;;;;14.67;13.33;;;;;;;;5086686;28;45406;-78
2023/10/11 08:30:16;;;;;;;;;14.00;12.67;;;;;;;;5094097;27;45290;-78
2023/10/11 08:32:46;;;;;;;;;17.33;14.33;;;;;;;;5091245;28;45334;-77
2023/10/11 08:35:17;;;;;;;;;16.33;13.00;;;;;;;;5087576;28;45512;-77
2023/10/11 08:37:43;;;;;;;;;14.33;12.67;;;;;;;;5071575;28;44676;-77
2023/10/11 08:40:20;;;;;;;;;58.33;38.67;;;;;;;;5072324;28;45342;-76
2023/10/11 08:42:49;;;;;;;;;17.33;13.67;;;;;;;;5096223;28;45468;-77
2023/10/11 08:45:20;;;;;;;;;15.00;12.00;;;;;;;;5078432;27;45406;-75
2023/10/11 08:47:45;;;;;;;;;15.33;13.67;;;;;;;;5074408;28;45363;-75
2023/10/11 08:50:17;;;;;;;;;18.33;14.00;;;;;;;;5089505;27;45461;-78
2023/10/11 08:52:42;;;;;;;;;11.67;11.00;;;;;;;;5069688;28;45303;-78
2023/10/11 08:55:11;;;;;;;;;12.00;11.00;;;;;;;;5088525;27;46494;-78
2023/10/11 08:57:36;;;;;;;;;11.00;11.00;;;;;;;;5086199;28;45420;-78
2023/10/11 09:00:17;;;;;;;;;27.33;25.67;;;;;;;;5064757;28;45524;-81
2023/10/11 09:02:48;;;;;;;;;15.67;13.00;;;;;;;;5083714;28;45323;-82
2023/10/11 09:08:21;;;;;;;;;10.67;8.67;;;;;;;;5067446;28;45349;-78
2023/10/11 09:10:49;;;;;;;;;14.33;12.33;;;;;;;;5081742;28;45474;-79
2023/10/11 09:13:23;;;;;;;;;11.33;9.33;;;;;;;;5080761;28;45452;-78
2023/10/11 09:15:53;;;;;;;;;11.33;10.33;;;;;;;;5081276;28;45305;-79
2023/10/11 09:18:19;;;;;;;;;13.00;10.67;;;;;;;;5064004;28;45326;-81
2023/10/11 09:20:49;;;;;;;;;18.67;14.00;;;;;;;;5085742;28;45262;-82
2023/10/11 09:23:20;;;;;;;;;9.33;8.67;;;;;;;;5066118;28;46217;-75
2023/10/11 09:25:57;;;;;;;;;12.67;10.67;;;;;;;;5082302;28;46159;-75
2023/10/11 09:28:23;;;;;;;;;9.67;9.67;;;;;;;;5090999;28;45295;-74
2023/10/11 09:31:03;;;;;;;;;7.00;7.00;;;;;;;;5085230;28;45233;-75
2023/10/11 09:33:34;;;;;;;;;11.67;9.00;;;;;;;;5081643;28;45295;-76
2023/10/11 09:36:09;;;;;;;;;9.33;9.33;;;;;;;;5081399;28;45255;-76
2023/10/11 09:38:41;;;;;;;;;11.00;9.00;;;;;;;;5081617;28;45339;-74
2023/10/11 09:41:07;;;;;;;;;16.33;11.00;;;;;;;;5063474;28;45356;-75
2023/10/11 09:43:36;;;;;;;;;11.00;10.00;;;;;;;;5081944;28;45374;-75
2023/10/11 09:46:03;;;;;;;;;10.00;10.00;;;;;;;;5082184;28;45342;-75
2023/10/11 09:48:29;;;;;;;;;12.33;10.67;;;;;;;;5081681;28;45311;-74
2023/10/11 09:50:57;;;;;;;;;10.00;9.67;;;;;;;;5082088;28;45279;-75
2023/10/11 09:53:25;;;;;;;;;8.00;8.00;;;;;;;;5063425;28;46090;-76
2023/10/11 09:55:55;;;;;;;;;8.00;7.33;;;;;;;;5077888;27;45639;-76
2023/10/11 09:58:29;;;;;;;;;11.67;10.00;;;;;;;;5070568;28;45379;-76
2023/10/11 10:01:06;;;;;;;;;11.67;10.67;;;;;;;;5051543;28;45816;-77
2023/10/11 10:03:31;;;;;;;;;13.33;12.33;;;;;;;;5054879;28;46086;-76
2023/10/11 10:06:18;;;;;;;;;7.67;7.67;;;;;;;;5078992;28;45303;-76
2023/10/11 10:08:47;;;;;;;;;13.00;11.00;;;;;;;;5064310;28;45296;-75
2023/10/11 10:11:13;;;;;;;;;12.00;10.00;;;;;;;;5103620;27;45392;-75
2023/10/11 10:13:58;;;;;;;;;12.00;12.00;;;;;;;;5110916;27;45453;-74
2023/10/11 10:16:43;;;;;;;;;10.67;8.33;;;;;;;;5104634;27;45551;-75
2023/10/11 10:19:24;;;;;;;;;7.33;6.33;;;;;;;;5103926;27;45341;-77
2023/10/11 10:22:08;;;;;;;;;10.67;9.67;;;;;;;;5103996;27;45387;-76
2023/10/11 10:24:33;;;;;;;;;10.67;10.33;;;;;;;;5086541;27;47041;-76
2023/10/11 10:27:18;;;;;;;;;12.00;10.00;;;;;;;;5101757;27;45331;-76
2023/10/11 10:29:59;;;;;;;;;14.00;12.67;;;;;;;;5098567;27;45268;-75
2023/10/11 10:32:25;;;;;;;;;12.33;11.00;;;;;;;;5080672;28;45394;-75
2023/10/11 10:35:11;;;;;;;;;9.67;9.33;;;;;;;;5080692;28;45358;-76
2023/10/11 10:37:46;;;;;;;;;10.67;10.00;;;;;;;;5079878;28;46388;-76
2023/10/11 10:40:17;;;;;;;;;10.00;8.67;;;;;;;;5062435;28;45369;-75
2023/10/11 10:43:02;;;;;;;;;9.67;9.67;;;;;;;;5080727;28;45573;-77
2023/10/11 10:45:27;;;;;;;;;10.33;9.67;;;;;;;;5080462;28;45255;-76
2023/10/11 10:48:10;;;;;;;;;11.00;10.00;;;;;;;;5080497;28;46258;-75
2023/10/11 10:51:03;;;;;;;;;11.00;10.00;;;;;;;;5089583;27;45390;-75
2023/10/11 10:53:39;;;;;;;;;7.00;7.00;;;;;;;;5078124;27;45403;-76
2023/10/11 10:56:04;;;;;;;;;9.33;9.00;;;;;;;;5073360;27;45742;-75
2023/10/11 10:58:30;;;;;;;;;12.00;9.00;;;;;;;;5061473;27;45520;-75
2023/10/11 11:00:59;;;;;;;;;10.00;10.00;;;;;;;;5063388;28;45478;-76
2023/10/11 11:03:24;;;;;;;;;11.33;10.00;;;;;;;;5079505;28;45389;-75
2023/10/11 11:05:55;;;;;;;;;9.00;9.00;;;;;;;;5080069;28;45348;-75
2023/10/11 11:08:24;;;;;;;;;9.67;8.67;;;;;;;;5079583;28;45275;-75
2023/10/11 11:10:57;;;;;;;;;9.25;9.00;;;;;;;;5079794;28;45526;-75
2023/10/11 11:13:23;;;;;;;;;11.00;9.00;;;;;;;;5080091;28;45305;-75
2023/10/11 11:15:55;;;;;;;;;8.75;8.25;;;;;;;;5079756;28;45524;-75
2023/10/11 11:18:32;;;;;;;;;9.00;7.67;;;;;;;;5079257;28;46235;-77
2023/10/11 11:21:08;;;;;;;;;8.00;8.00;;;;;;;;5078995;28;45291;-76
2023/10/11 11:23:33;;;;;;;;;11.00;9.00;;;;;;;;5061336;28;45480;-76
2023/10/11 11:26:04;;;;;;;;;13.00;11.33;;;;;;;;5061367;28;47093;-78
2023/10/11 11:28:29;;;;;;;;;9.00;9.00;;;;;;;;5079503;27;45609;-75
2023/10/11 11:30:57;;;;;;;;;10.33;8.00;;;;;;;;5100171;27;45274;-75
2023/10/11 11:33:35;;;;;;;;;9.00;9.00;;;;;;;;5099826;27;45254;-75
2023/10/11 11:36:00;;;;;;;;;11.00;8.75;;;;;;;;5079862;27;45374;-76
2023/10/11 11:38:28;;;;;;;;;10.33;8.33;;;;;;;;5065068;28;45913;-75
2023/10/11 11:41:03;;;;;;;;;9.67;8.00;;;;;;;;5079736;28;45321;-78
2023/10/11 11:43:32;;;;;;;;;8.00;6.75;;;;;;;;5079567;28;45447;-80
2023/10/11 11:46:01;;;;;;;;;10.00;9.33;;;;;;;;5076506;27;45370;-78
2023/10/11 11:48:27;;;;;;;;;9.50;8.50;;;;;;;;5056365;28;47506;-83
2023/10/11 11:50:56;;;;;;;;;9.33;8.33;;;;;;;;5059468;28;45347;-80
2023/10/11 11:53:21;;;;;;;;;10.00;9.00;;;;;;;;5077454;28;45458;-80
2023/10/11 11:55:46;;;;;;;;;11.00;8.67;;;;;;;;5058844;28;46398;-80
2023/10/11 11:58:11;;;;;;;;;7.50;7.00;;;;;;;;5060070;28;47231;-79
2023/10/11 12:00:40;;;;;;;;;9.75;8.50;;;;;;;;5068319;27;45517;-80
2023/10/11 12:03:06;;;;;;;;;9.00;8.67;;;;;;;;5069119;28;45347;-80
2023/10/11 12:05:41;;;;;;;;;8.67;6.33;;;;;;;;5064768;28;45387;-79
2023/10/11 12:08:08;;;;;;;;;8.00;8.00;;;;;;;;5064528;28;47803;-82
2023/10/11 12:10:34;;;;;;;;;8.67;8.00;;;;;;;;5063958;28;45370;-78
2023/10/11 12:13:08;;;;;;;;;7.00;7.00;;;;;;;;5064506;28;45303;-78
2023/10/11 12:15:34;;;;;;;;;8.33;8.33;;;;;;;;5072000;27;46663;-78
2023/10/11 12:17:59;;;;;;;;;7.00;7.00;;;;;;;;5084518;27;47876;-79
2023/10/11 12:20:33;;;;;;;;;7.75;6.75;;;;;;;;5055405;28;48574;-79
2023/10/11 12:23:07;;;;;;;;;11.25;7.75;;;;;;;;5060653;27;45471;-79
2023/10/11 12:25:33;;;;;;;;;8.50;7.25;;;;;;;;5071725;28;47382;-79
2023/10/11 12:28:01;;;;;;;;;7.00;6.25;;;;;;;;5063435;28;47240;-79
2023/10/11 12:30:26;;;;;;;;;8.00;6.75;;;;;;;;5063692;28;45327;-78
2023/10/11 12:32:52;;;;;;;;;6.67;6.67;;;;;;;;5063677;28;45282;-78
2023/10/11 12:35:18;;;;;;;;;8.33;5.00;;;;;;;;5058967;28;45426;-79
2023/10/11 12:37:43;;;;;;;;;8.25;7.50;;;;;;;;5062968;28;46952;-79
2023/10/11 12:40:13;;;;;;;;;9.00;7.33;;;;;;;;5063413;27;45315;-79
2023/10/11 12:42:42;;;;;;;;;8.25;7.00;;;;;;;;5063233;28;45336;-78
2023/10/11 12:45:08;;;;;;;;;9.00;9.00;;;;;;;;5065536;27;45414;-79
2023/10/11 12:47:34;;;;;;;;;10.00;7.25;;;;;;;;5062754;28;47452;-79
2023/10/11 12:50:00;;;;;;;;;10.67;9.67;;;;;;;;5050394;27;46063;-79
2023/10/11 12:52:30;;;;;;;;;8.00;7.67;;;;;;;;5061566;28;45762;-78
2023/10/11 12:54:55;;;;;;;;;7.33;7.33;;;;;;;;5058686;27;45698;-79
2023/10/11 12:57:20;;;;;;;;;8.00;7.50;;;;;;;;5078613;28;47641;-79
2023/10/11 12:59:46;;;;;;;;;8.33;8.33;;;;;;;;5063677;28;45487;-78
2023/10/11 13:02:20;;;;;;;;;10.33;8.67;;;;;;;;5063576;28;45406;-79
2023/10/11 13:04:47;;;;;;;;;10.33;9.33;;;;;;;;5062389;28;45497;-78
2023/10/11 13:07:13;;;;;;;;;10.00;9.67;;;;;;;;5062580;28;47572;-79
2023/10/11 13:09:39;;;;;;;;;10.67;8.33;;;;;;;;5080417;28;45510;-78
2023/10/11 13:12:05;;;;;;;;;10.00;10.00;;;;;;;;5077628;27;45332;-78
2023/10/11 13:14:32;;;;;;;;;10.00;9.75;;;;;;;;5047553;28;46963;-81
2023/10/11 13:17:00;;;;;;;;;7.75;7.75;;;;;;;;5079252;28;45967;-80
2023/10/11 13:19:26;;;;;;;;;8.75;8.75;;;;;;;;5080859;28;45290;-80
2023/10/11 13:21:55;;;;;;;;;8.67;8.00;;;;;;;;5062877;28;45301;-81
2023/10/11 13:24:24;;;;;;;;;9.33;9.33;;;;;;;;5079340;28;45478;-79
2023/10/11 13:26:51;;;;;;;;;8.67;8.67;;;;;;;;5080181;28;45574;-79
2023/10/11 13:29:16;;;;;;;;;10.50;7.75;;;;;;;;5089210;27;45359;-79
2023/10/11 13:31:43;;;;;;;;;9.67;8.67;;;;;;;;5102002;27;45389;-79
2023/10/11 13:34:08;;;;;;;;;12.50;10.00;;;;;;;;5070528;28;47471;-79
2023/10/11 13:36:33;;;;;;;;;7.75;7.75;;;;;;;;5079896;28;45508;-77
2023/10/11 13:39:03;;;;;;;;;10.67;10.00;;;;;;;;5080706;28;45441;-81
2023/10/11 13:41:30;;;;;;;;;8.25;8.25;;;;;;;;5062219;28;45438;-80
2023/10/11 13:43:55;;;;;;;;;9.00;8.75;;;;;;;;5080895;28;45621;-77
2023/10/11 13:46:22;;;;;;;;;10.00;10.00;;;;;;;;5056604;28;47319;-78
2023/10/11 13:48:49;;;;;;;;;11.00;10.33;;;;;;;;5060180;28;46122;-78
2023/10/11 13:51:17;;;;;;;;;11.00;8.50;;;;;;;;5061227;28;45552;-80
2023/10/11 13:53:42;;;;;;;;;8.75;8.50;;;;;;;;5062419;28;45302;-78
2023/10/11 13:56:20;;;;;;;;;9.00;9.00;;;;;;;;5061452;28;45245;-78
2023/10/11 13:58:46;;;;;;;;;12.00;9.25;;;;;;;;5044615;28;45442;-79
2023/10/11 14:04:08;;;;;;;;;10.00;8.00;;;;;;;;5063803;28;45338;-79
2023/10/11 14:06:43;;;;;;;;;11.67;10.00;;;;;;;;5065444;28;45461;-79
2023/10/11 14:09:17;;;;;;;;;10.67;10.67;;;;;;;;5066415;28;45349;-79
2023/10/11 14:11:46;;;;;;;;;7.00;7.00;;;;;;;;5063354;28;45444;-79
2023/10/11 14:14:12;;;;;;;;;11.00;11.00;;;;;;;;5065645;28;45356;-78
2023/10/11 14:16:37;;;;;;;;;11.50;9.50;;;;;;;;5062507;28;46367;-79
2023/10/11 14:19:06;;;;;;;;;8.33;8.00;;;;;;;;5066197;28;45229;-79
2023/10/11 14:21:36;;;;;;;;;10.33;8.67;;;;;;;;5063339;28;45377;-78
2023/10/11 14:24:01;;;;;;;;;11.33;11.33;;;;;;;;5064572;28;45212;-77
2023/10/11 14:26:28;;;;;;;;;10.67;10.00;;;;;;;;5061692;28;45413;-80
2023/10/11 14:28:53;;;;;;;;;11.67;9.67;;;;;;;;5067676;27;45232;-79
2023/10/11 14:31:22;;;;;;;;;10.00;9.33;;;;;;;;5061307;28;45601;-81
2023/10/11 14:33:49;;;;;;;;;12.67;11.67;;;;;;;;5059815;28;45417;-78
2023/10/11 14:36:15;;;;;;;;;12.67;10.00;;;;;;;;5060797;28;45448;-80
2023/10/11 14:38:40;;;;;;;;;11.67;11.67;;;;;;;;5065961;28;45329;-77
2023/10/11 14:41:10;;;;;;;;;13.00;12.00;;;;;;;;5063997;28;45544;-78
2023/10/11 14:43:36;;;;;;;;;9.67;8.33;;;;;;;;5060128;28;46462;-75
2023/10/11 14:46:06;;;;;;;;;10.00;9.00;;;;;;;;5069280;28;46052;-77
2023/10/11 14:48:31;;;;;;;;;9.00;9.00;;;;;;;;5063456;28;45224;-78
2023/10/11 14:50:56;;;;;;;;;9.67;8.67;;;;;;;;5084040;28;45307;-79
2023/10/11 14:53:24;;;;;;;;;9.00;9.00;;;;;;;;5082524;28;45300;-78
2023/10/11 14:55:54;;;;;;;;;10.00;8.00;;;;;;;;5064778;28;47253;-78
2023/10/11 14:58:19;;;;;;;;;9.00;9.00;;;;;;;;5065618;28;45360;-79
2023/10/11 15:00:45;;;;;;;;;11.00;9.67;;;;;;;;5064652;28;45501;-79
2023/10/11 15:03:12;;;;;;;;;8.33;8.33;;;;;;;;5065865;28;47307;-78
2023/10/11 15:05:38;;;;;;;;;10.00;10.00;;;;;;;;5066107;28;48083;-78
2023/10/11 15:08:04;;;;;;;;;12.33;10.00;;;;;;;;5081447;28;45193;-78
2023/10/11 15:10:30;;;;;;;;;7.00;7.00;;;;;;;;5084918;28;45185;-77
2023/10/11 15:12:55;;;;;;;;;9.33;8.67;;;;;;;;5083607;28;45165;-80
2023/10/11 15:15:26;;;;;;;;;9.00;8.00;;;;;;;;5084975;28;45240;-78
2023/10/11 15:17:51;;;;;;;;;8.00;7.67;;;;;;;;5065295;28;45318;-78
2023/10/11 15:20:17;;;;;;;;;9.00;9.00;;;;;;;;5086084;28;45284;-78